sensor_id;sensor_type;location;lat;lon;timestamp;pressure;altitude;pressure_sealevel;temperature;humidity
15487;BME280;7845;53.698;10.078;2023-12-20T00:00:58;100586.50;;;6.21;90.20
15487;BME280;7845;53.698;10.078;2023-12-20T00:03:23;100615.97;;;6.37;90.03
15487;BME280;7845;53.698;10.078;2023-12-20T00:05:50;100546.25;;;5.95;90.54
15487;BME280;7845;53.698;10.078;2023-12-20T00:08:16;100604.16;;;6.32;90.34
15487;BME280;7845;53.698;10.078;2023-12-20T00:10:43;100601.78;;;6.27;90.36
15487;BME280;7845;53.698;10.078;2023-12-20T00:13:08;100584.63;;;6.23;90.01
15487;BME280;7845;53.698;10.078;2023-12-20T00:15:34;100592.44;;;6.23;90.79
15487;BME280;7845;53.698;10.078;2023-12-20T00:17:59;100486.75;;;5.56;90.02
15487;BME280;7845;53.698;10.078;2023-12-20T00:20:25;100593.66;;;6.18;90.31
15487;BME280;7845;53.698;10.078;2023-12-20T00:22:51;100597.25;;;6.15;90.18
15487;BME280;7845;53.698;10.078;2023-12-20T00:25:16;100587.59;;;6.17;90.93
15487;BME280;7845;53.698;10.078;2023-12-20T00:27:41;100582.28;;;6.19;91.08
15487;BME280;7845;53.698;10.078;2023-12-20T00:30:07;100582.13;;;6.22;91.19
15487;BME280;7845;53.698;10.078;2023-12-20T00:32:33;100568.75;;;6.28;91.32
15487;BME280;7845;53.698;10.078;2023-12-20T00:34:58;100570.31;;;6.30;90.63
15487;BME280;7845;53.698;10.078;2023-12-20T00:37:23;100566.38;;;6.39;91.30
15487;BME280;7845;53.698;10.078;2023-12-20T00:39:49;100564.25;;;6.45;90.89
15487;BME280;7845;53.698;10.078;2023-12-20T00:42:14;100567.41;;;6.50;91.33
15487;BME280;7845;53.698;10.078;2023-12-20T00:44:39;100558.59;;;6.53;90.96
15487;BME280;7845;53.698;10.078;2023-12-20T00:47:05;100564.53;;;6.55;90.18
15487;BME280;7845;53.698;10.078;2023-12-20T00:49:30;100555.41;;;6.48;89.61
15487;BME280;7845;53.698;10.078;2023-12-20T00:51:55;100541.41;;;6.35;90.11
15487;BME280;7845;53.698;10.078;2023-12-20T00:54:21;100553.78;;;6.31;90.11
15487;BME280;7845;53.698;10.078;2023-12-20T00:56:46;100550.50;;;6.28;90.04
15487;BME280;7845;53.698;10.078;2023-12-20T00:59:12;100542.94;;;6.23;89.94
15487;BME280;7845;53.698;10.078;2023-12-20T01:01:37;100550.00;;;6.21;90.28
15487;BME280;7845;53.698;10.078;2023-12-20T01:04:03;100494.56;;;5.88;90.88
15487;BME280;7845;53.698;10.078;2023-12-20T01:06:28;100545.34;;;6.26;91.24
15487;BME280;7845;53.698;10.078;2023-12-20T01:08:54;100552.00;;;6.32;90.46
15487;BME280;7845;53.698;10.078;2023-12-20T01:11:19;100558.97;;;6.31;90.83
15487;BME280;7845;53.698;10.078;2023-12-20T01:13:44;100547.78;;;6.29;90.66
15487;BME280;7845;53.698;10.078;2023-12-20T01:16:10;100536.03;;;6.22;90.41
15487;BME280;7845;53.698;10.078;2023-12-20T01:18:36;100530.31;;;6.16;90.48
15487;BME280;7845;53.698;10.078;2023-12-20T01:21:02;100531.41;;;6.12;89.92
15487;BME280;7845;53.698;10.078;2023-12-20T01:23:28;100542.78;;;6.11;90.19
15487;BME280;7845;53.698;10.078;2023-12-20T01:25:53;100534.66;;;6.01;90.40
15487;BME280;7845;53.698;10.078;2023-12-20T01:28:19;100422.00;;;5.35;90.79
15487;BME280;7845;53.698;10.078;2023-12-20T01:30:44;100534.81;;;5.98;90.91
15487;BME280;7845;53.698;10.078;2023-12-20T01:33:09;100534.81;;;5.98;89.96
15487;BME280;7845;53.698;10.078;2023-12-20T01:35:38;100531.63;;;5.93;90.35
15487;BME280;7845;53.698;10.078;2023-12-20T01:38:03;100525.75;;;5.89;90.38
15487;BME280;7845;53.698;10.078;2023-12-20T01:40:31;100528.00;;;5.95;90.40
15487;BME280;7845;53.698;10.078;2023-12-20T01:43:07;100528.19;;;5.92;91.16
15487;BME280;7845;53.698;10.078;2023-12-20T01:45:33;100522.25;;;5.90;90.73
15487;BME280;7845;53.698;10.078;2023-12-20T01:47:58;100500.03;;;5.83;91.22
15487;BME280;7845;53.698;10.078;2023-12-20T01:50:28;100517.84;;;5.91;91.58
15487;BME280;7845;53.698;10.078;2023-12-20T01:52:56;100527.16;;;5.95;90.64
15487;BME280;7845;53.698;10.078;2023-12-20T01:55:27;100521.78;;;5.98;91.20
15487;BME280;7845;53.698;10.078;2023-12-20T01:57:53;100516.81;;;6.09;91.35
15487;BME280;7845;53.698;10.078;2023-12-20T02:00:19;100511.25;;;6.15;91.79
15487;BME280;7845;53.698;10.078;2023-12-20T02:02:48;100522.31;;;6.34;91.63
15487;BME280;7845;53.698;10.078;2023-12-20T02:05:21;100515.56;;;6.46;91.41
15487;BME280;7845;53.698;10.078;2023-12-20T02:07:47;100510.88;;;6.51;90.61
15487;BME280;7845;53.698;10.078;2023-12-20T02:10:13;100510.69;;;6.54;90.73
15487;BME280;7845;53.698;10.078;2023-12-20T02:12:38;100512.13;;;6.60;90.32
15487;BME280;7845;53.698;10.078;2023-12-20T02:15:04;100506.91;;;6.60;90.52
15487;BME280;7845;53.698;10.078;2023-12-20T02:17:31;100496.47;;;6.60;90.55
15487;BME280;7845;53.698;10.078;2023-12-20T02:19:56;100490.31;;;6.61;90.47
15487;BME280;7845;53.698;10.078;2023-12-20T02:22:22;100489.00;;;6.53;89.54
15487;BME280;7845;53.698;10.078;2023-12-20T02:24:47;100484.28;;;6.60;89.42
15487;BME280;7845;53.698;10.078;2023-12-20T02:27:12;100487.63;;;6.62;89.83
15487;BME280;7845;53.698;10.078;2023-12-20T02:29:38;100480.66;;;6.63;89.50
15487;BME280;7845;53.698;10.078;2023-12-20T02:32:03;100481.31;;;6.66;89.60
15487;BME280;7845;53.698;10.078;2023-12-20T02:34:29;100402.84;;;6.27;89.63
15487;BME280;7845;53.698;10.078;2023-12-20T02:36:54;100471.06;;;6.77;90.19
15487;BME280;7845;53.698;10.078;2023-12-20T02:39:21;100470.69;;;6.83;89.92
15487;BME280;7845;53.698;10.078;2023-12-20T02:41:48;100471.41;;;6.85;89.02
15487;BME280;7845;53.698;10.078;2023-12-20T02:44:14;100458.50;;;6.84;89.61
15487;BME280;7845;53.698;10.078;2023-12-20T02:46:39;100453.53;;;6.79;89.39
15487;BME280;7845;53.698;10.078;2023-12-20T02:49:06;100459.69;;;6.78;88.87
15487;BME280;7845;53.698;10.078;2023-12-20T02:51:31;100455.31;;;6.79;89.70
15487;BME280;7845;53.698;10.078;2023-12-20T02:53:56;100452.69;;;6.79;88.75
15487;BME280;7845;53.698;10.078;2023-12-20T02:56:22;100444.78;;;6.80;88.68
15487;BME280;7845;53.698;10.078;2023-12-20T02:58:47;100442.44;;;6.76;88.79
15487;BME280;7845;53.698;10.078;2023-12-20T03:01:12;100438.00;;;6.78;89.57
15487;BME280;7845;53.698;10.078;2023-12-20T03:03:37;100433.78;;;6.75;89.63
15487;BME280;7845;53.698;10.078;2023-12-20T03:06:06;100432.22;;;6.73;88.84
15487;BME280;7845;53.698;10.078;2023-12-20T03:08:31;100431.81;;;6.79;89.48
15487;BME280;7845;53.698;10.078;2023-12-20T03:10:59;100435.19;;;6.81;88.58
15487;BME280;7845;53.698;10.078;2023-12-20T03:13:31;100415.16;;;6.81;88.81
15487;BME280;7845;53.698;10.078;2023-12-20T03:15:56;100422.41;;;6.76;89.38
15487;BME280;7845;53.698;10.078;2023-12-20T03:18:21;100417.19;;;6.76;88.92
15487;BME280;7845;53.698;10.078;2023-12-20T03:20:47;100422.41;;;6.76;88.75
15487;BME280;7845;53.698;10.078;2023-12-20T03:23:19;100418.88;;;6.77;88.68
15487;BME280;7845;53.698;10.078;2023-12-20T03:25:44;100410.94;;;6.79;88.70
15487;BME280;7845;53.698;10.078;2023-12-20T03:28:09;100404.88;;;6.78;89.29
15487;BME280;7845;53.698;10.078;2023-12-20T03:30:37;100399.78;;;6.77;88.55
15487;BME280;7845;53.698;10.078;2023-12-20T03:33:05;100407.34;;;6.81;89.53
15487;BME280;7845;53.698;10.078;2023-12-20T03:35:31;100406.19;;;6.85;89.64
15487;BME280;7845;53.698;10.078;2023-12-20T03:37:56;100408.06;;;6.83;88.49
15487;BME280;7845;53.698;10.078;2023-12-20T03:40:24;100391.97;;;6.77;88.17
15487;BME280;7845;53.698;10.078;2023-12-20T03:42:50;100400.31;;;6.82;88.14
15487;BME280;7845;53.698;10.078;2023-12-20T03:45:24;100306.94;;;6.18;88.59
15487;BME280;7845;53.698;10.078;2023-12-20T03:47:54;100392.88;;;6.76;88.32
15487;BME280;7845;53.698;10.078;2023-12-20T03:50:25;100395.22;;;6.80;88.18
15487;BME280;7845;53.698;10.078;2023-12-20T03:52:51;100380.03;;;6.73;88.92
15487;BME280;7845;53.698;10.078;2023-12-20T03:55:16;100388.22;;;6.81;89.06
15487;BME280;7845;53.698;10.078;2023-12-20T03:57:47;100387.47;;;6.79;88.63
15487;BME280;7845;53.698;10.078;2023-12-20T04:00:12;100369.53;;;6.74;88.25
15487;BME280;7845;53.698;10.078;2023-12-20T04:02:44;100298.47;;;6.28;88.89
15487;BME280;7845;53.698;10.078;2023-12-20T04:05:11;100306.50;;;6.25;88.42
15487;BME280;7845;53.698;10.078;2023-12-20T04:07:37;100362.16;;;6.67;88.66
15487;BME280;7845;53.698;10.078;2023-12-20T04:10:11;100348.66;;;6.60;88.72
15487;BME280;7845;53.698;10.078;2023-12-20T04:12:37;100354.03;;;6.71;89.01
15487;BME280;7845;53.698;10.078;2023-12-20T04:15:02;100366.16;;;6.72;88.71
15487;BME280;7845;53.698;10.078;2023-12-20T04:17:34;100359.34;;;6.70;88.16
15487;BME280;7845;53.698;10.078;2023-12-20T04:20:05;100361.78;;;6.73;89.01
15487;BME280;7845;53.698;10.078;2023-12-20T04:22:30;100355.44;;;6.77;88.81
15487;BME280;7845;53.698;10.078;2023-12-20T04:25:01;100335.88;;;6.70;88.53
15487;BME280;7845;53.698;10.078;2023-12-20T04:27:27;100346.50;;;6.81;87.93
15487;BME280;7845;53.698;10.078;2023-12-20T04:29:55;100338.34;;;6.85;88.46
15487;BME280;7845;53.698;10.078;2023-12-20T04:32:24;100335.84;;;6.84;88.80
15487;BME280;7845;53.698;10.078;2023-12-20T04:34:49;100316.50;;;6.74;88.53
15487;BME280;7845;53.698;10.078;2023-12-20T04:37:14;100329.81;;;6.83;88.01
15487;BME280;7845;53.698;10.078;2023-12-20T04:39:42;100321.25;;;6.81;88.06
15487;BME280;7845;53.698;10.078;2023-12-20T04:42:08;100320.00;;;6.87;88.63
15487;BME280;7845;53.698;10.078;2023-12-20T04:44:33;100320.66;;;6.90;87.84
15487;BME280;7845;53.698;10.078;2023-12-20T04:46:59;100313.75;;;6.89;87.93
15487;BME280;7845;53.698;10.078;2023-12-20T04:49:24;100316.34;;;6.89;88.09
15487;BME280;7845;53.698;10.078;2023-12-20T04:51:50;100312.72;;;6.92;88.74
15487;BME280;7845;53.698;10.078;2023-12-20T04:54:15;100304.28;;;6.88;88.47
15487;BME280;7845;53.698;10.078;2023-12-20T04:56:41;100309.66;;;6.85;88.61
15487;BME280;7845;53.698;10.078;2023-12-20T04:59:06;100303.72;;;6.83;87.68
15487;BME280;7845;53.698;10.078;2023-12-20T05:01:31;100299.84;;;6.89;88.07
15487;BME280;7845;53.698;10.078;2023-12-20T05:03:57;100296.44;;;6.88;88.07
15487;BME280;7845;53.698;10.078;2023-12-20T05:06:22;100294.00;;;6.85;87.51
15487;BME280;7845;53.698;10.078;2023-12-20T05:08:47;100293.75;;;6.76;88.21
15487;BME280;7845;53.698;10.078;2023-12-20T05:11:13;100295.03;;;6.83;87.58
15487;BME280;7845;53.698;10.078;2023-12-20T05:13:39;100291.50;;;6.84;88.53
15487;BME280;7845;53.698;10.078;2023-12-20T05:16:05;100295.78;;;6.85;88.27
15487;BME280;7845;53.698;10.078;2023-12-20T05:18:30;100300.81;;;6.88;88.42
15487;BME280;7845;53.698;10.078;2023-12-20T05:20:55;100288.25;;;6.80;88.13
15487;BME280;7845;53.698;10.078;2023-12-20T05:23:21;100245.25;;;6.59;87.33
15487;BME280;7845;53.698;10.078;2023-12-20T05:25:46;100270.38;;;6.74;87.96
15487;BME280;7845;53.698;10.078;2023-12-20T05:28:11;100281.59;;;6.89;87.80
15487;BME280;7845;53.698;10.078;2023-12-20T05:30:36;100294.56;;;6.90;87.97
15487;BME280;7845;53.698;10.078;2023-12-20T05:33:02;100219.63;;;6.39;88.00
15487;BME280;7845;53.698;10.078;2023-12-20T05:35:27;100297.38;;;6.87;87.75
15487;BME280;7845;53.698;10.078;2023-12-20T05:37:52;100290.81;;;6.94;88.10
15487;BME280;7845;53.698;10.078;2023-12-20T05:40:18;100301.06;;;6.97;88.29
15487;BME280;7845;53.698;10.078;2023-12-20T05:42:43;100297.22;;;7.03;88.14
15487;BME280;7845;53.698;10.078;2023-12-20T05:45:08;100298.53;;;6.96;88.25
15487;BME280;7845;53.698;10.078;2023-12-20T05:47:34;100296.69;;;6.98;87.95
15487;BME280;7845;53.698;10.078;2023-12-20T05:49:59;100284.41;;;6.86;89.05
15487;BME280;7845;53.698;10.078;2023-12-20T05:52:24;100298.09;;;6.89;88.54
15487;BME280;7845;53.698;10.078;2023-12-20T05:54:50;100287.78;;;6.88;88.34
15487;BME280;7845;53.698;10.078;2023-12-20T05:57:15;100291.84;;;6.92;88.59
15487;BME280;7845;53.698;10.078;2023-12-20T05:59:40;100291.84;;;6.92;88.54
15487;BME280;7845;53.698;10.078;2023-12-20T06:02:06;100209.06;;;6.40;88.17
15487;BME280;7845;53.698;10.078;2023-12-20T06:04:31;100275.66;;;6.87;89.03
15487;BME280;7845;53.698;10.078;2023-12-20T06:06:56;100167.59;;;6.23;88.96
15487;BME280;7845;53.698;10.078;2023-12-20T06:09:22;100282.56;;;6.88;89.24
15487;BME280;7845;53.698;10.078;2023-12-20T06:11:47;100280.03;;;6.86;89.97
15487;BME280;7845;53.698;10.078;2023-12-20T06:14:12;100271.97;;;6.77;88.96
15487;BME280;7845;53.698;10.078;2023-12-20T06:16:37;100224.44;;;6.45;89.88
15487;BME280;7845;53.698;10.078;2023-12-20T06:19:03;100253.97;;;6.72;90.32
15487;BME280;7845;53.698;10.078;2023-12-20T06:21:28;100252.56;;;6.81;90.31
15487;BME280;7845;53.698;10.078;2023-12-20T06:23:53;100257.31;;;6.88;89.20
15487;BME280;7845;53.698;10.078;2023-12-20T06:26:19;100269.00;;;6.95;89.00
15487;BME280;7845;53.698;10.078;2023-12-20T06:28:44;100251.75;;;6.93;89.05
15487;BME280;7845;53.698;10.078;2023-12-20T06:31:10;100248.84;;;6.85;89.92
15487;BME280;7845;53.698;10.078;2023-12-20T06:33:36;100253.53;;;6.92;90.08
15487;BME280;7845;53.698;10.078;2023-12-20T06:36:01;100244.97;;;6.90;89.98
15487;BME280;7845;53.698;10.078;2023-12-20T06:38:26;100255.22;;;6.93;89.90
15487;BME280;7845;53.698;10.078;2023-12-20T06:40:52;100254.69;;;6.88;89.81
15487;BME280;7845;53.698;10.078;2023-12-20T06:43:17;100242.78;;;6.84;89.41
15487;BME280;7845;53.698;10.078;2023-12-20T06:45:42;100165.31;;;6.45;90.05
15487;BME280;7845;53.698;10.078;2023-12-20T06:48:08;100227.56;;;6.91;90.19
15487;BME280;7845;53.698;10.078;2023-12-20T06:50:33;100218.97;;;6.89;89.61
15487;BME280;7845;53.698;10.078;2023-12-20T06:52:58;100225.66;;;6.93;89.25
15487;BME280;7845;53.698;10.078;2023-12-20T06:55:24;100153.22;;;6.57;89.27
15487;BME280;7845;53.698;10.078;2023-12-20T06:57:49;100219.53;;;6.94;89.24
15487;BME280;7845;53.698;10.078;2023-12-20T07:00:15;100161.53;;;6.64;89.57
15487;BME280;7845;53.698;10.078;2023-12-20T07:02:40;100210.84;;;6.93;89.58
15487;BME280;7845;53.698;10.078;2023-12-20T07:05:06;100208.53;;;6.89;89.72
15487;BME280;7845;53.698;10.078;2023-12-20T07:07:31;100149.91;;;6.55;89.42
15487;BME280;7845;53.698;10.078;2023-12-20T07:09:56;100209.19;;;6.92;89.84
15487;BME280;7845;53.698;10.078;2023-12-20T07:12:22;100209.09;;;6.94;89.05
15487;BME280;7845;53.698;10.078;2023-12-20T07:14:47;100211.78;;;6.92;89.80
15487;BME280;7845;53.698;10.078;2023-12-20T07:17:13;100212.53;;;6.94;89.02
15487;BME280;7845;53.698;10.078;2023-12-20T07:19:40;100219.53;;;6.94;89.05
15487;BME280;7845;53.698;10.078;2023-12-20T07:22:06;100171.97;;;6.64;89.23
15487;BME280;7845;53.698;10.078;2023-12-20T07:24:32;100211.56;;;6.95;89.89
15487;BME280;7845;53.698;10.078;2023-12-20T07:26:57;100210.00;;;6.93;89.13
15487;BME280;7845;53.698;10.078;2023-12-20T07:29:22;100202.41;;;7.02;89.62
15487;BME280;7845;53.698;10.078;2023-12-20T07:31:48;100195.63;;;7.00;88.97
15487;BME280;7845;53.698;10.078;2023-12-20T07:34:13;100185.00;;;7.03;89.49
15487;BME280;7845;53.698;10.078;2023-12-20T07:36:38;100188.22;;;7.06;89.23
15487;BME280;7845;53.698;10.078;2023-12-20T07:39:03;100190.13;;;7.04;89.80
15487;BME280;7845;53.698;10.078;2023-12-20T07:41:29;100175.19;;;7.06;89.37
15487;BME280;7845;53.698;10.078;2023-12-20T07:43:54;100189.19;;;7.05;89.17
15487;BME280;7845;53.698;10.078;2023-12-20T07:46:21;100132.00;;;6.76;89.02
15487;BME280;7845;53.698;10.078;2023-12-20T07:48:49;100176.56;;;7.12;88.88
15487;BME280;7845;53.698;10.078;2023-12-20T07:51:14;100178.22;;;7.00;89.61
15487;BME280;7845;53.698;10.078;2023-12-20T07:53:40;100174.25;;;7.07;88.99
15487;BME280;7845;53.698;10.078;2023-12-20T07:56:17;100173.00;;;7.13;88.63
15487;BME280;7845;53.698;10.078;2023-12-20T07:58:44;100180.81;;;7.13;88.91
15487;BME280;7845;53.698;10.078;2023-12-20T08:01:10;100184.28;;;7.14;89.11
15487;BME280;7845;53.698;10.078;2023-12-20T08:03:35;100141.66;;;6.88;88.91
15487;BME280;7845;53.698;10.078;2023-12-20T08:06:02;100123.19;;;6.91;88.85
15487;BME280;7845;53.698;10.078;2023-12-20T08:08:27;100179.41;;;7.22;89.34
15487;BME280;7845;53.698;10.078;2023-12-20T08:10:53;100169.50;;;7.27;88.58
15487;BME280;7845;53.698;10.078;2023-12-20T08:13:18;100160.81;;;7.26;88.40
15487;BME280;7845;53.698;10.078;2023-12-20T08:15:43;100158.72;;;7.31;88.94
15487;BME280;7845;53.698;10.078;2023-12-20T08:18:09;100145.44;;;7.34;88.41
15487;BME280;7845;53.698;10.078;2023-12-20T08:20:34;100132.09;;;7.39;88.51
15487;BME280;7845;53.698;10.078;2023-12-20T08:22:59;100140.22;;;7.34;87.72
15487;BME280;7845;53.698;10.078;2023-12-20T08:25:25;100142.13;;;7.45;87.83
15487;BME280;7845;53.698;10.078;2023-12-20T08:27:50;100093.75;;;7.14;87.06
15487;BME280;7845;53.698;10.078;2023-12-20T08:30:16;100125.41;;;7.35;87.66
15487;BME280;7845;53.698;10.078;2023-12-20T08:32:45;100087.09;;;7.23;87.62
15487;BME280;7845;53.698;10.078;2023-12-20T08:35:11;100124.25;;;7.51;86.98
15487;BME280;7845;53.698;10.078;2023-12-20T08:37:36;100083.75;;;7.33;87.90
15487;BME280;7845;53.698;10.078;2023-12-20T08:40:02;100117.66;;;7.71;87.55
15487;BME280;7845;53.698;10.078;2023-12-20T08:42:27;100116.38;;;7.77;87.23
15487;BME280;7845;53.698;10.078;2023-12-20T08:44:57;100113.13;;;7.86;86.51
15487;BME280;7845;53.698;10.078;2023-12-20T08:47:23;100098.84;;;7.79;86.05
15487;BME280;7845;53.698;10.078;2023-12-20T08:49:48;100106.31;;;7.83;86.61
15487;BME280;7845;53.698;10.078;2023-12-20T08:52:14;100103.53;;;7.74;86.17
15487;BME280;7845;53.698;10.078;2023-12-20T08:54:39;100106.53;;;7.80;86.74
15487;BME280;7845;53.698;10.078;2023-12-20T08:57:04;100118.59;;;7.70;86.76
15487;BME280;7845;53.698;10.078;2023-12-20T08:59:31;100113.19;;;7.61;86.91
15487;BME280;7845;53.698;10.078;2023-12-20T09:01:57;100117.03;;;7.55;87.72
15487;BME280;7845;53.698;10.078;2023-12-20T09:04:22;100048.56;;;7.14;87.69
15487;BME280;7845;53.698;10.078;2023-12-20T09:06:47;100073.00;;;7.13;87.81
15487;BME280;7845;53.698;10.078;2023-12-20T09:09:12;100116.63;;;7.36;88.37
15487;BME280;7845;53.698;10.078;2023-12-20T09:11:39;100133.75;;;7.27;88.69
15487;BME280;7845;53.698;10.078;2023-12-20T09:14:05;100133.34;;;7.21;89.28
15487;BME280;7845;53.698;10.078;2023-12-20T09:16:31;100089.56;;;6.74;88.90
15487;BME280;7845;53.698;10.078;2023-12-20T09:18:57;100137.78;;;6.93;90.15
15487;BME280;7845;53.698;10.078;2023-12-20T09:21:22;100142.59;;;6.87;90.25
15487;BME280;7845;53.698;10.078;2023-12-20T09:23:47;100141.03;;;6.84;91.07
15487;BME280;7845;53.698;10.078;2023-12-20T09:26:13;100078.84;;;6.51;90.71
15487;BME280;7845;53.698;10.078;2023-12-20T09:28:38;100136.66;;;6.85;90.79
15487;BME280;7845;53.698;10.078;2023-12-20T09:31:05;100154.72;;;6.88;89.35
15487;BME280;7845;53.698;10.078;2023-12-20T09:33:31;100148.00;;;6.84;88.88
15487;BME280;7845;53.698;10.078;2023-12-20T09:35:57;100140.78;;;6.75;87.80
15487;BME280;7845;53.698;10.078;2023-12-20T09:38:23;100149.16;;;6.80;88.44
15487;BME280;7845;53.698;10.078;2023-12-20T09:40:48;100159.56;;;6.67;87.65
15487;BME280;7845;53.698;10.078;2023-12-20T09:43:15;100158.09;;;6.76;88.36
15487;BME280;7845;53.698;10.078;2023-12-20T09:45:46;100106.81;;;6.49;87.86
15487;BME280;7845;53.698;10.078;2023-12-20T09:48:12;100110.22;;;6.50;87.49
15487;BME280;7845;53.698;10.078;2023-12-20T09:50:40;100173.06;;;6.86;87.38
15487;BME280;7845;53.698;10.078;2023-12-20T09:53:08;100168.69;;;6.87;87.49
15487;BME280;7845;53.698;10.078;2023-12-20T09:55:35;100168.34;;;6.79;86.30
15487;BME280;7845;53.698;10.078;2023-12-20T09:58:01;100151.75;;;6.80;87.21
15487;BME280;7845;53.698;10.078;2023-12-20T10:00:26;100150.06;;;6.79;87.29
15487;BME280;7845;53.698;10.078;2023-12-20T10:02:59;100146.75;;;6.77;86.33
15487;BME280;7845;53.698;10.078;2023-12-20T10:05:32;100126.56;;;6.66;86.61
15487;BME280;7845;53.698;10.078;2023-12-20T10:07:58;100128.53;;;6.63;86.72
15487;BME280;7845;53.698;10.078;2023-12-20T10:10:24;100141.16;;;6.56;85.99
15487;BME280;7845;53.698;10.078;2023-12-20T10:13:04;100141.03;;;6.57;86.13
15487;BME280;7845;53.698;10.078;2023-12-20T10:15:29;100108.34;;;6.39;87.27
15487;BME280;7845;53.698;10.078;2023-12-20T10:17:56;100162.81;;;6.83;86.78
15487;BME280;7845;53.698;10.078;2023-12-20T10:20:21;100163.09;;;6.66;85.33
15487;BME280;7845;53.698;10.078;2023-12-20T10:22:46;100160.00;;;6.74;85.70
15487;BME280;7845;53.698;10.078;2023-12-20T10:25:12;100154.44;;;6.78;86.50
15487;BME280;7845;53.698;10.078;2023-12-20T10:27:38;100146.34;;;6.95;86.58
15487;BME280;7845;53.698;10.078;2023-12-20T10:30:03;100151.59;;;7.08;86.09
15487;BME280;7845;53.698;10.078;2023-12-20T10:32:29;100140.75;;;7.01;84.98
15487;BME280;7845;53.698;10.078;2023-12-20T10:34:55;100090.47;;;6.60;85.23
15487;BME280;7845;53.698;10.078;2023-12-20T10:37:21;100133.72;;;6.89;85.50
15487;BME280;7845;53.698;10.078;2023-12-20T10:39:50;100125.13;;;6.75;85.79
15487;BME280;7845;53.698;10.078;2023-12-20T10:42:19;100127.22;;;6.70;86.18
15487;BME280;7845;53.698;10.078;2023-12-20T10:44:46;100125.19;;;6.61;86.09
15487;BME280;7845;53.698;10.078;2023-12-20T10:47:13;100131.25;;;6.61;86.39
15487;BME280;7845;53.698;10.078;2023-12-20T10:49:39;100124.47;;;6.71;85.92
15487;BME280;7845;53.698;10.078;2023-12-20T10:52:05;100130.16;;;6.78;86.84
15487;BME280;7845;53.698;10.078;2023-12-20T10:54:31;100113.97;;;6.85;86.03
15487;BME280;7845;53.698;10.078;2023-12-20T10:56:57;100053.44;;;6.68;85.91
15487;BME280;7845;53.698;10.078;2023-12-20T10:59:24;100139.16;;;6.99;85.52
15487;BME280;7845;53.698;10.078;2023-12-20T11:01:50;100065.88;;;6.37;85.30
15487;BME280;7845;53.698;10.078;2023-12-20T11:04:22;100163.72;;;6.70;86.22
15487;BME280;7845;53.698;10.078;2023-12-20T11:06:54;100168.31;;;6.66;86.51
15487;BME280;7845;53.698;10.078;2023-12-20T11:09:26;100182.47;;;6.62;87.39
15487;BME280;7845;53.698;10.078;2023-12-20T11:12:01;100169.44;;;6.35;87.57
15487;BME280;7845;53.698;10.078;2023-12-20T11:15:06;100166.03;;;6.21;88.77
15487;BME280;7845;53.698;10.078;2023-12-20T11:17:27;100150.78;;;6.15;88.81
15487;BME280;7845;53.698;10.078;2023-12-20T11:22:24;100139.72;;;6.11;89.01
15487;BME280;7845;53.698;10.078;2023-12-20T11:24:51;100161.09;;;6.16;89.84
15487;BME280;7845;53.698;10.078;2023-12-20T11:27:18;100088.47;;;5.83;89.37
15487;BME280;7845;53.698;10.078;2023-12-20T11:29:51;100149.63;;;6.19;88.72
15487;BME280;7845;53.698;10.078;2023-12-20T11:37:36;100150.66;;;6.16;89.65
15487;BME280;7845;53.698;10.078;2023-12-20T11:40:05;100147.66;;;6.22;90.21
15487;BME280;7845;53.698;10.078;2023-12-20T11:42:33;100139.47;;;6.28;90.15
15487;BME280;7845;53.698;10.078;2023-12-20T11:45:03;100142.53;;;6.35;90.68
15487;BME280;7845;53.698;10.078;2023-12-20T11:47:29;100139.63;;;6.39;89.66
15487;BME280;7845;53.698;10.078;2023-12-20T11:49:55;100138.78;;;6.39;90.44
15487;BME280;7845;53.698;10.078;2023-12-20T11:52:21;100138.47;;;6.43;90.36
15487;BME280;7845;53.698;10.078;2023-12-20T11:54:46;100140.59;;;6.51;89.68
15487;BME280;7845;53.698;10.078;2023-12-20T11:57:13;100138.44;;;6.57;90.67
15487;BME280;7845;53.698;10.078;2023-12-20T11:59:38;100088.56;;;6.23;90.34
15487;BME280;7845;53.698;10.078;2023-12-20T12:02:03;100142.38;;;6.50;89.45
15487;BME280;7845;53.698;10.078;2023-12-20T12:04:29;100142.47;;;6.49;90.05
15487;BME280;7845;53.698;10.078;2023-12-20T12:06:54;100090.53;;;6.19;89.53
15487;BME280;7845;53.698;10.078;2023-12-20T12:09:19;100140.09;;;6.59;89.87
15487;BME280;7845;53.698;10.078;2023-12-20T12:11:45;100140.03;;;6.60;90.50
15487;BME280;7845;53.698;10.078;2023-12-20T12:14:10;100133.75;;;6.63;89.79
15487;BME280;7845;53.698;10.078;2023-12-20T12:16:36;100132.22;;;6.73;89.53
15487;BME280;7845;53.698;10.078;2023-12-20T12:19:01;100121.78;;;6.73;89.83
15487;BME280;7845;53.698;10.078;2023-12-20T12:21:27;100119.09;;;6.74;89.98
15487;BME280;7845;53.698;10.078;2023-12-20T12:23:52;100117.84;;;6.80;88.79
15487;BME280;7845;53.698;10.078;2023-12-20T12:26:18;100109.91;;;6.81;89.21
15487;BME280;7845;53.698;10.078;2023-12-20T12:28:44;100115.03;;;6.83;89.61
15487;BME280;7845;53.698;10.078;2023-12-20T12:31:13;100057.47;;;6.46;88.85
15487;BME280;7845;53.698;10.078;2023-12-20T12:33:40;100116.41;;;6.88;88.49
15487;BME280;7845;53.698;10.078;2023-12-20T12:36:07;100001.56;;;6.38;88.84
15487;BME280;7845;53.698;10.078;2023-12-20T12:38:32;100103.25;;;7.02;87.81
15487;BME280;7845;53.698;10.078;2023-12-20T12:40:59;100098.34;;;6.98;87.65
15487;BME280;7845;53.698;10.078;2023-12-20T12:43:25;100060.13;;;6.72;87.68
15487;BME280;7845;53.698;10.078;2023-12-20T12:45:50;100069.31;;;6.77;87.16
15487;BME280;7845;53.698;10.078;2023-12-20T12:48:15;100073.91;;;6.86;85.93
15487;BME280;7845;53.698;10.078;2023-12-20T12:50:41;100107.66;;;7.15;86.24
15487;BME280;7845;53.698;10.078;2023-12-20T12:53:06;100098.88;;;7.03;85.86
15487;BME280;7845;53.698;10.078;2023-12-20T12:55:32;100124.97;;;7.03;85.33
15487;BME280;7845;53.698;10.078;2023-12-20T12:57:57;100076.53;;;6.86;85.59
15487;BME280;7845;53.698;10.078;2023-12-20T13:00:23;100121.88;;;7.23;85.94
15487;BME280;7845;53.698;10.078;2023-12-20T13:02:49;100118.63;;;7.20;84.60